Droitwich, United Kingdom
Current Conditions -  °F | °C
As of 6:20 PM on Monday 22 Dec 2014 (Local Time) from EGBB Reporting Station
Broken Clouds Broken Clouds  
Wind Chill: 54°   Ceiling: 2000
Heat Index: 54°   Visibility: 6mi
Dew Point: 46°   Wind: 15mph
Humidity: 77%   Direction: 240°WSW
Pressure: 29.94"   Gusts: 26mph
Location:  52.27°N, 2.15°W
Report Text: EGBB 221820Z 24013G23KT 200V270 9999 BKN020 12/08 Q1014
Loading
Personal Weather Stations






























Interactive Weather Map New forecast layout! Learn more

10-Day Weather Forecast

Advertisements
Track Severe Weather on mobile